createdAt,value
2018-06-22T00:01:22.961Z,11.50
2018-06-22T00:06:18.798Z,11.40
2018-06-22T00:11:14.558Z,11.30
2018-06-22T00:13:42.602Z,11.40
2018-06-22T00:16:10.625Z,11.30
2018-06-22T00:18:38.680Z,11.30
2018-06-22T00:21:06.698Z,11.30
2018-06-22T00:23:34.864Z,11.30
2018-06-22T00:26:02.901Z,11.40
2018-06-22T00:28:30.929Z,11.40
2018-06-22T00:30:58.953Z,11.50
2018-06-22T00:33:26.973Z,11.50
2018-06-22T00:35:55.001Z,11.60
2018-06-22T00:38:23.056Z,11.60
2018-06-22T00:40:51.137Z,11.50
2018-06-22T00:43:19.222Z,11.50
2018-06-22T00:45:47.253Z,11.40
2018-06-22T00:48:15.486Z,11.40
2018-06-22T00:50:43.470Z,11.30
2018-06-22T00:53:17.423Z,11.30
2018-06-22T00:55:45.426Z,11.30
2018-06-22T00:58:13.461Z,11.30
2018-06-22T01:00:41.546Z,11.30
2018-06-22T01:03:09.596Z,11.20
2018-06-22T01:05:37.697Z,11.20
2018-06-22T01:08:05.781Z,11.20
2018-06-22T01:10:33.959Z,11.20
2018-06-22T01:13:02.110Z,11.10
2018-06-22T01:15:30.227Z,11.10
2018-06-22T01:17:58.229Z,11.10
2018-06-22T01:20:26.717Z,11.10
2018-06-22T01:22:54.753Z,11.10
2018-06-22T01:25:22.769Z,11.10
2018-06-22T01:27:50.956Z,11.10
2018-06-22T01:30:19.009Z,11.00
2018-06-22T01:35:14.753Z,11.00
2018-06-22T01:37:42.770Z,11.00
2018-06-22T01:40:10.801Z,11.00
2018-06-22T01:42:38.834Z,11.00
2018-06-22T01:47:34.673Z,11.00
2018-06-22T01:50:02.721Z,11.00
2018-06-22T01:52:30.822Z,11.00
2018-06-22T01:54:58.815Z,11.00
2018-06-22T01:57:26.837Z,10.90
2018-06-22T01:59:54.918Z,10.90
2018-06-22T02:02:22.948Z,10.90
2018-06-22T02:04:51.007Z,10.80
2018-06-22T02:07:19.056Z,10.80
2018-06-22T02:09:47.122Z,10.80
2018-06-22T02:12:15.164Z,10.80
2018-06-22T02:14:43.670Z,10.80
2018-06-22T02:17:11.692Z,10.90
2018-06-22T02:19:39.753Z,10.90
2018-06-22T02:22:07.781Z,10.90
2018-06-22T02:24:35.848Z,10.90
2018-06-22T02:27:03.882Z,10.90
2018-06-22T02:29:31.927Z,11.00
2018-06-22T02:32:00.034Z,11.00
2018-06-22T02:34:28.307Z,11.10
2018-06-22T02:36:56.326Z,11.10
2018-06-22T02:39:24.747Z,11.20
2018-06-22T02:41:52.799Z,11.10
2018-06-22T02:46:48.622Z,11.20
2018-06-22T02:49:16.668Z,11.20
2018-06-22T02:51:44.677Z,11.10
2018-06-22T02:56:40.483Z,11.20
2018-06-22T02:59:08.523Z,11.10
2018-06-22T03:01:36.549Z,11.10
2018-06-22T03:04:04.597Z,11.20
2018-06-22T03:06:32.632Z,11.20
2018-06-22T03:09:00.663Z,11.20
2018-06-22T03:11:28.738Z,11.20
2018-06-22T03:16:24.614Z,11.20
2018-06-22T03:18:52.630Z,11.20
2018-06-22T03:23:48.375Z,11.20
2018-06-22T03:26:16.734Z,11.20
2018-06-22T03:28:44.743Z,11.30
2018-06-22T03:31:12.953Z,11.20
2018-06-22T03:33:40.975Z,11.20
2018-06-22T03:36:09.001Z,11.20
2018-06-22T03:38:37.092Z,11.20
2018-06-22T03:41:05.130Z,11.20
2018-06-22T03:43:33.578Z,11.30
2018-06-22T03:46:01.569Z,11.20
2018-06-22T03:48:29.605Z,11.20
2018-06-22T03:53:25.430Z,11.30
2018-06-22T03:55:53.482Z,11.30
2018-06-22T03:58:21.541Z,11.30
2018-06-22T04:00:49.586Z,11.30
2018-06-22T04:03:17.608Z,11.40
2018-06-22T04:05:45.686Z,11.30
2018-06-22T04:08:13.780Z,11.30
2018-06-22T04:10:41.827Z,11.40
2018-06-22T04:13:09.824Z,11.50
2018-06-22T04:15:37.865Z,11.40
2018-06-22T04:18:05.912Z,11.40
2018-06-22T04:20:33.965Z,11.40
2018-06-22T04:23:01.990Z,11.60
2018-06-22T04:25:30.033Z,11.60
2018-06-22T04:27:58.066Z,11.60
2018-06-22T04:32:53.817Z,11.60
2018-06-22T04:35:21.924Z,11.60
2018-06-22T04:37:49.942Z,11.60
2018-06-22T04:40:17.984Z,11.60
2018-06-22T04:42:46.133Z,11.60
2018-06-22T04:45:14.190Z,11.50
2018-06-22T04:47:42.345Z,11.60
2018-06-22T04:50:10.344Z,11.50
2018-06-22T04:52:38.374Z,11.60
2018-06-22T04:55:06.477Z,11.60
2018-06-22T04:57:34.543Z,11.60
2018-06-22T05:00:02.666Z,11.60
2018-06-22T05:02:30.697Z,11.70
2018-06-22T05:04:58.746Z,11.80
2018-06-22T05:09:54.546Z,11.80
2018-06-22T05:12:22.569Z,11.80
2018-06-22T05:14:50.616Z,11.90
2018-06-22T05:17:18.637Z,11.80
2018-06-22T05:19:46.661Z,11.90
2018-06-22T05:22:14.794Z,11.90
2018-06-22T05:24:42.833Z,11.90
2018-06-22T05:27:10.872Z,11.90
2018-06-22T05:29:38.890Z,11.90
2018-06-22T05:32:06.927Z,12.00
2018-06-22T05:34:35.126Z,12.00
2018-06-22T05:37:03.198Z,12.10
2018-06-22T05:39:31.269Z,12.30
2018-06-22T05:41:59.338Z,12.50
2018-06-22T05:44:27.363Z,12.50
2018-06-22T05:46:55.505Z,12.40
2018-06-22T05:49:23.604Z,12.40
2018-06-22T05:51:51.662Z,12.40
2018-06-22T05:54:19.818Z,12.50
2018-06-22T05:56:48.718Z,12.60
2018-06-22T05:59:16.713Z,12.70
2018-06-22T06:01:44.767Z,12.60
2018-06-22T06:04:12.793Z,12.70
2018-06-22T06:06:40.849Z,12.70
2018-06-22T06:09:09.922Z,12.80
2018-06-22T06:11:37.961Z,12.80
2018-06-22T06:14:06.165Z,12.90
2018-06-22T06:16:34.193Z,12.90
2018-06-22T06:19:02.418Z,12.80
2018-06-22T06:21:30.439Z,12.70
2018-06-22T06:23:58.446Z,12.80
2018-06-22T06:26:26.604Z,12.80
2018-06-22T06:28:54.632Z,12.80
2018-06-22T06:33:50.457Z,12.90
2018-06-22T06:36:18.481Z,13.00
2018-06-22T06:38:46.497Z,13.00
2018-06-22T06:41:14.550Z,13.20
2018-06-22T06:43:42.712Z,13.30
2018-06-22T06:46:11.062Z,13.30
2018-06-22T06:51:07.077Z,13.20
2018-06-22T06:53:35.090Z,13.30
2018-06-22T06:56:03.126Z,13.50
2018-06-22T07:00:58.906Z,13.60
2018-06-22T07:03:26.934Z,13.50
2018-06-22T07:05:55.076Z,13.50
2018-06-22T07:08:23.130Z,13.40
2018-06-22T07:10:51.143Z,13.30
2018-06-22T07:15:46.922Z,13.40
2018-06-22T07:18:14.994Z,13.30
2018-06-22T07:20:43.025Z,13.30
2018-06-22T07:23:11.078Z,13.50
2018-06-22T07:25:39.109Z,13.70
2018-06-22T07:28:07.151Z,13.90
2018-06-22T07:30:35.274Z,14.10
2018-06-22T07:33:03.260Z,14.20
2018-06-22T07:35:31.305Z,14.30
2018-06-22T07:37:59.462Z,14.30
2018-06-22T07:40:27.474Z,14.30
2018-06-22T07:42:55.530Z,14.40
2018-06-22T07:45:23.540Z,14.40
2018-06-22T07:47:51.578Z,14.20
2018-06-22T07:50:19.638Z,14.20
2018-06-22T07:52:47.708Z,14.20
2018-06-22T07:55:15.892Z,14.10
2018-06-22T07:57:44.017Z,13.90
2018-06-22T08:00:12.126Z,13.90
2018-06-22T08:02:40.193Z,13.80
2018-06-22T08:05:08.289Z,13.70
2018-06-22T08:07:36.474Z,13.40
2018-06-22T08:10:04.522Z,13.00
2018-06-22T08:12:32.934Z,12.80
2018-06-22T08:15:00.969Z,12.60
2018-06-22T08:17:29.011Z,12.30
2018-06-22T08:19:57.123Z,12.20
2018-06-22T08:22:25.148Z,12.10
2018-06-22T08:27:21.057Z,12.10
2018-06-22T08:29:49.061Z,12.20
2018-06-22T08:32:17.122Z,12.20
2018-06-22T08:34:45.142Z,12.30
2018-06-22T08:37:13.206Z,12.30
2018-06-22T08:39:41.234Z,12.40
2018-06-22T08:42:09.570Z,12.50
2018-06-22T08:44:37.571Z,12.70
2018-06-22T08:47:05.705Z,12.90
2018-06-22T08:49:33.778Z,13.00
2018-06-22T08:52:01.858Z,13.50
2018-06-22T08:54:29.895Z,13.80
2018-06-22T08:56:57.927Z,13.90
2018-06-22T08:59:25.951Z,14.00
2018-06-22T09:01:54.359Z,14.00
2018-06-22T09:04:22.381Z,13.70
2018-06-22T09:09:18.149Z,13.30
2018-06-22T09:11:46.167Z,13.40
2018-06-22T09:14:14.201Z,13.70
2018-06-22T09:16:42.230Z,13.90
2018-06-22T09:19:10.267Z,13.90
2018-06-22T09:21:38.563Z,14.10
2018-06-22T09:24:06.595Z,14.30
2018-06-22T09:26:34.649Z,14.30
2018-06-22T09:29:02.694Z,14.30
2018-06-22T09:31:30.717Z,14.60
2018-06-22T09:33:58.751Z,15.00
2018-06-22T09:36:26.802Z,15.00
2018-06-22T09:38:54.847Z,14.70
2018-06-22T09:41:22.883Z,14.20
2018-06-22T09:43:50.929Z,14.00
2018-06-22T09:46:18.966Z,13.80
2018-06-22T09:48:47.028Z,13.80
2018-06-22T09:51:15.062Z,13.80
2018-06-22T09:53:43.117Z,13.90
2018-06-22T09:56:11.164Z,14.10
2018-06-22T09:58:39.201Z,14.40
2018-06-22T10:01:07.258Z,14.70
2018-06-22T10:03:35.306Z,15.00
2018-06-22T10:06:03.339Z,15.00
2018-06-22T10:08:31.381Z,15.10
2018-06-22T10:10:59.398Z,15.20
2018-06-22T10:13:27.436Z,15.40
2018-06-22T10:15:55.814Z,15.70
2018-06-22T10:18:25.607Z,15.80
2018-06-22T10:20:53.702Z,15.70
2018-06-22T10:23:21.882Z,15.20
2018-06-22T10:25:49.918Z,14.50
2018-06-22T10:28:18.239Z,14.00
2018-06-22T10:30:46.249Z,13.50
2018-06-22T10:33:14.317Z,13.30
2018-06-22T10:35:42.361Z,13.20
2018-06-22T10:38:10.394Z,13.00
2018-06-22T10:40:38.440Z,12.90
2018-06-22T10:43:06.670Z,13.00
2018-06-22T10:45:34.723Z,13.10
2018-06-22T10:48:02.780Z,13.20
2018-06-22T10:50:30.853Z,13.40
2018-06-22T10:52:58.938Z,13.60
2018-06-22T10:55:27.007Z,13.90
2018-06-22T10:57:55.046Z,14.00
2018-06-22T11:00:23.101Z,14.40
2018-06-22T11:02:51.128Z,14.70
2018-06-22T11:05:19.177Z,14.90
2018-06-22T11:10:14.982Z,15.40
2018-06-22T11:12:43.106Z,15.70
2018-06-22T11:15:11.173Z,15.80
2018-06-22T11:17:39.187Z,16.40
2018-06-22T11:20:07.217Z,16.80
2018-06-22T11:22:35.285Z,17.70
2018-06-22T11:25:03.355Z,18.10
2018-06-22T11:27:31.381Z,17.90
2018-06-22T11:29:59.536Z,17.60
2018-06-22T11:32:27.561Z,17.10
2018-06-22T11:34:55.649Z,17.00
2018-06-22T11:37:23.670Z,16.70
2018-06-22T11:39:51.705Z,16.90
2018-06-22T11:42:19.762Z,17.10
2018-06-22T11:44:47.842Z,17.20
2018-06-22T11:47:15.934Z,17.70
2018-06-22T11:49:43.959Z,18.10
2018-06-22T11:52:12.051Z,18.50
2018-06-22T11:54:40.122Z,18.80
2018-06-22T11:57:08.143Z,19.10
2018-06-22T11:59:36.269Z,19.00
2018-06-22T12:02:04.321Z,18.90
2018-06-22T12:07:00.137Z,18.60
2018-06-22T12:09:28.153Z,19.00
2018-06-22T12:11:56.182Z,20.30
2018-06-22T12:14:24.210Z,22.00
2018-06-22T12:16:52.443Z,23.40
2018-06-22T12:19:20.575Z,24.90
2018-06-22T12:21:48.571Z,26.80
2018-06-22T12:24:16.581Z,26.70
2018-06-22T12:26:44.614Z,27.00
2018-06-22T12:29:12.741Z,27.70
2018-06-22T12:31:40.802Z,28.90
2018-06-22T12:34:08.906Z,29.30
2018-06-22T12:36:37.193Z,28.90
2018-06-22T12:39:07.513Z,28.10
2018-06-22T12:41:35.572Z,27.70
2018-06-22T12:44:03.605Z,29.70
2018-06-22T12:46:31.684Z,30.50
2018-06-22T12:48:59.716Z,31.20
2018-06-22T12:51:27.785Z,28.50
2018-06-22T12:53:55.808Z,27.50
2018-06-22T12:56:23.877Z,26.40
2018-06-22T12:58:51.953Z,26.70
2018-06-22T13:01:20.031Z,27.70
2018-06-22T13:03:48.057Z,28.90
2018-06-22T13:06:16.126Z,28.50
2018-06-22T13:11:11.940Z,30.20
2018-06-22T13:13:39.910Z,30.60
2018-06-22T13:16:08.025Z,29.50
2018-06-22T13:18:36.041Z,28.30
2018-06-22T13:21:04.113Z,29.10
2018-06-22T13:23:33.223Z,27.80
2018-06-22T13:26:01.307Z,27.00
2018-06-22T13:28:29.335Z,25.60
2018-06-22T13:30:57.408Z,23.90
2018-06-22T13:33:25.480Z,23.60
2018-06-22T13:35:53.557Z,22.90
2018-06-22T13:38:21.584Z,21.80
2018-06-22T13:40:49.619Z,21.60
2018-06-22T13:43:17.670Z,22.30
2018-06-22T13:45:45.748Z,23.10
2018-06-22T13:48:13.786Z,24.60
2018-06-22T13:50:41.826Z,25.50
2018-06-22T13:53:09.882Z,27.00
2018-06-22T13:55:37.919Z,27.40
2018-06-22T13:58:05.967Z,27.50
2018-06-22T14:00:34.002Z,27.50
2018-06-22T14:03:02.038Z,27.40
2018-06-22T14:05:35.773Z,25.40
2018-06-22T14:08:03.930Z,24.40
2018-06-22T14:10:31.953Z,25.40
2018-06-22T14:13:00.912Z,26.50
2018-06-22T14:15:28.925Z,27.50
2018-06-22T14:17:57.025Z,26.30
2018-06-22T14:20:25.093Z,25.40
2018-06-22T14:22:53.132Z,23.50
2018-06-22T14:25:21.167Z,21.40
2018-06-22T14:27:49.201Z,20.90
2018-06-22T14:30:17.276Z,20.30
2018-06-22T14:32:45.552Z,19.80
2018-06-22T14:35:13.681Z,19.50
2018-06-22T14:37:41.809Z,19.00
2018-06-22T14:40:09.851Z,19.00
2018-06-22T14:42:37.898Z,18.90
2018-06-22T14:45:06.026Z,18.90
2018-06-22T14:47:34.039Z,19.10
2018-06-22T14:50:02.103Z,19.90
2018-06-22T14:52:30.126Z,21.30
2018-06-22T14:55:03.759Z,22.30
2018-06-22T14:57:37.412Z,23.80
2018-06-22T15:00:10.990Z,25.30
2018-06-22T15:02:44.586Z,25.90
2018-06-22T15:05:18.360Z,25.10
2018-06-22T15:07:52.149Z,24.10
2018-06-22T15:10:20.170Z,23.50
2018-06-22T15:12:48.254Z,22.50
2018-06-22T15:15:16.284Z,22.20
2018-06-22T15:17:49.991Z,21.70
2018-06-22T15:20:18.087Z,21.70
2018-06-22T15:22:46.206Z,20.80
2018-06-22T15:25:14.264Z,20.30
2018-06-22T15:27:42.313Z,19.80
2018-06-22T15:30:10.382Z,19.60
2018-06-22T15:32:38.404Z,19.30
2018-06-22T15:35:11.953Z,19.20
2018-06-22T15:37:45.541Z,19.30
2018-06-22T15:40:19.292Z,19.40
2018-06-22T15:42:52.907Z,19.20
2018-06-22T15:45:26.401Z,19.20
2018-06-22T15:48:00.138Z,19.30
2018-06-22T15:50:33.831Z,19.50
2018-06-22T15:53:07.418Z,19.60
2018-06-22T15:55:38.569Z,20.10
2018-06-22T15:58:06.606Z,21.20
2018-06-22T16:00:34.643Z,22.90
2018-06-22T16:04:10.037Z,24.90
2018-06-22T16:06:38.290Z,26.40
2018-06-22T16:09:07.056Z,27.10
2018-06-22T16:11:35.353Z,26.80
2018-06-22T16:14:08.866Z,27.40
2018-06-22T16:16:42.496Z,28.20
2018-06-22T16:19:16.086Z,27.10
2018-06-22T16:21:49.764Z,27.70
2018-06-22T16:24:23.342Z,27.70
2018-06-22T16:26:57.097Z,28.30
2018-06-22T16:29:25.160Z,27.70
2018-06-22T16:31:53.297Z,27.70
2018-06-22T16:34:21.332Z,28.50
2018-06-22T16:39:17.228Z,26.80
2018-06-22T16:41:45.275Z,25.90
2018-06-22T16:44:13.361Z,25.90
2018-06-22T16:46:41.399Z,26.20
2018-06-22T16:49:09.513Z,25.10
2018-06-22T16:51:37.629Z,24.40
2018-06-22T16:54:05.766Z,24.20
2018-06-22T16:56:33.790Z,24.90
2018-06-22T16:59:02.425Z,25.20
2018-06-22T17:01:31.487Z,25.20
2018-06-22T17:03:59.493Z,25.10
2018-06-22T17:06:31.889Z,25.60
2018-06-22T17:09:05.626Z,26.30
2018-06-22T17:11:39.070Z,25.60
2018-06-22T17:14:12.660Z,25.20
2018-06-22T17:16:46.240Z,24.30
2018-06-22T17:19:20.076Z,23.80
2018-06-22T17:21:48.325Z,23.00
2018-06-22T17:24:16.426Z,21.90
2018-06-22T17:26:44.421Z,21.20
2018-06-22T17:29:12.498Z,20.60
2018-06-22T17:31:40.504Z,20.20
2018-06-22T17:34:08.578Z,19.90
2018-06-22T17:36:36.601Z,19.60
2018-06-22T17:39:06.594Z,19.30
2018-06-22T17:41:34.586Z,19.20
2018-06-22T17:44:02.683Z,19.10
2018-06-22T17:48:58.545Z,18.80
2018-06-22T17:51:26.610Z,18.70
2018-06-22T17:53:54.697Z,18.60
2018-06-22T17:56:28.309Z,18.50
2018-06-22T17:59:01.958Z,18.40
2018-06-22T18:04:09.103Z,18.30
2018-06-22T18:06:42.892Z,18.30
2018-06-22T18:11:48.659Z,18.10
2018-06-22T18:14:16.728Z,18.00
2018-06-22T18:16:44.760Z,18.00
2018-06-22T18:19:12.878Z,18.00
2018-06-22T18:21:40.992Z,18.00
2018-06-22T18:24:09.025Z,18.00
2018-06-22T18:26:37.247Z,17.90
2018-06-22T18:29:05.293Z,17.80
2018-06-22T18:31:33.581Z,17.70
2018-06-22T18:34:01.595Z,17.50
2018-06-22T18:36:29.636Z,17.40
2018-06-22T18:38:57.742Z,17.30
2018-06-22T18:41:25.855Z,17.20
2018-06-22T18:43:57.891Z,17.20
2018-06-22T18:48:53.754Z,17.10
2018-06-22T18:51:21.797Z,17.10
2018-06-22T18:53:55.294Z,17.00
2018-06-22T18:59:02.573Z,16.90
2018-06-22T19:01:36.187Z,16.90
2018-06-22T19:06:32.059Z,17.00
2018-06-22T19:09:00.080Z,16.90
2018-06-22T19:11:28.121Z,16.90
2018-06-22T19:13:56.149Z,16.90
2018-06-22T19:16:24.173Z,16.80
2018-06-22T19:18:52.214Z,16.80
2018-06-22T19:23:47.972Z,16.60
2018-06-22T19:26:16.005Z,16.60
2018-06-22T19:28:44.124Z,16.50
2018-06-22T19:31:12.205Z,16.30
2018-06-22T19:33:40.289Z,16.30
2018-06-22T19:36:08.333Z,16.20
2018-06-22T19:38:36.449Z,16.10
2018-06-22T19:41:04.489Z,16.10
2018-06-22T19:43:38.098Z,16.00
2018-06-22T19:46:11.728Z,16.00
2018-06-22T19:48:45.317Z,15.90
2018-06-22T19:51:18.957Z,15.80
2018-06-22T19:53:56.909Z,15.80
2018-06-22T19:56:24.942Z,15.80
2018-06-22T19:58:52.985Z,15.80
2018-06-22T20:01:21.022Z,15.70
2018-06-22T20:03:49.061Z,15.70
2018-06-22T20:06:17.117Z,15.80
2018-06-22T20:08:46.138Z,15.70
2018-06-22T20:11:14.176Z,15.70
2018-06-22T20:13:43.121Z,15.70
2018-06-22T20:16:11.202Z,15.70
2018-06-22T20:18:39.241Z,15.60
2018-06-22T20:21:08.057Z,15.60
2018-06-22T20:23:36.141Z,15.60
2018-06-22T20:26:04.171Z,15.50
2018-06-22T20:28:32.254Z,15.50
2018-06-22T20:31:00.234Z,15.50
2018-06-22T20:33:28.309Z,15.40
2018-06-22T20:36:01.795Z,15.40
2018-06-22T20:38:35.358Z,15.30
2018-06-22T20:41:08.969Z,15.30
2018-06-22T20:43:42.457Z,15.30
2018-06-22T20:48:43.822Z,15.10
2018-06-22T20:51:11.908Z,15.10
2018-06-22T20:53:40.633Z,15.10
2018-06-22T20:56:08.653Z,15.10
2018-06-22T20:58:36.775Z,15.00
2018-06-22T21:01:04.789Z,15.00
2018-06-22T21:03:32.817Z,14.90
2018-06-22T21:06:01.025Z,14.90
2018-06-22T21:08:29.076Z,14.80
2018-06-22T21:10:57.118Z,14.80
2018-06-22T21:13:25.238Z,14.80
2018-06-22T21:15:53.279Z,14.80
2018-06-22T21:18:21.321Z,14.70
2018-06-22T21:23:22.821Z,14.70
2018-06-22T21:25:51.221Z,14.60
2018-06-22T21:28:24.744Z,14.60
2018-06-22T21:30:58.218Z,14.60
2018-06-22T21:33:31.954Z,14.60
2018-06-22T21:38:39.073Z,14.50
2018-06-22T21:41:07.113Z,14.50
2018-06-22T21:43:35.163Z,14.50
2018-06-22T21:46:03.191Z,14.50
2018-06-22T21:50:58.993Z,14.50
2018-06-22T21:53:27.087Z,14.50
2018-06-22T21:55:55.209Z,14.50
2018-06-22T21:58:23.247Z,14.50
2018-06-22T22:05:46.816Z,14.50
2018-06-22T22:08:14.953Z,14.50
2018-06-22T22:10:48.713Z,14.40
2018-06-22T22:13:16.861Z,14.50
2018-06-22T22:15:44.961Z,14.50
2018-06-22T22:18:13.001Z,14.50
2018-06-22T22:20:41.011Z,14.50
2018-06-22T22:23:09.126Z,14.50
2018-06-22T22:25:37.170Z,14.50
2018-06-22T22:30:32.918Z,14.40
2018-06-22T22:33:00.994Z,14.40
2018-06-22T22:35:29.008Z,14.40
2018-06-22T22:37:57.046Z,14.40
2018-06-22T22:40:25.106Z,14.30
2018-06-22T22:42:53.111Z,14.30
2018-06-22T22:45:21.270Z,14.30
2018-06-22T22:47:49.299Z,14.20
2018-06-22T22:52:45.133Z,14.20
2018-06-22T22:57:40.934Z,14.00
2018-06-22T23:00:08.973Z,14.00
2018-06-22T23:02:36.991Z,14.00
2018-06-22T23:05:05.171Z,13.90
2018-06-22T23:07:33.317Z,13.90
2018-06-22T23:10:01.350Z,13.90
2018-06-22T23:12:29.370Z,13.90
2018-06-22T23:14:57.405Z,13.90
2018-06-22T23:17:25.486Z,13.90
2018-06-22T23:19:53.537Z,13.90
2018-06-22T23:22:26.071Z,13.90
2018-06-22T23:24:54.106Z,13.80
2018-06-22T23:27:22.121Z,13.70
2018-06-22T23:29:50.157Z,13.70
2018-06-22T23:32:18.178Z,13.70
2018-06-22T23:34:46.261Z,13.60
2018-06-22T23:37:14.273Z,13.60
2018-06-22T23:39:42.312Z,13.50
2018-06-22T23:42:10.369Z,13.50
2018-06-22T23:44:38.402Z,13.50
2018-06-22T23:47:06.617Z,13.40
2018-06-22T23:52:02.490Z,13.30
2018-06-22T23:54:30.602Z,13.20
2018-06-22T23:56:58.614Z,13.10
2018-06-22T23:59:26.690Z,12.90
